Sheoaks, Australia
Current Conditions -  °F | °C
As of 7:00 PM on Monday 26 Jan 2015 (Local Time) from YMAV Reporting Station
Clear Clear  
Wind Chill: 63°   Ceiling: Unl
Heat Index: 63°   Visibility: 6mi
Dew Point: 46°   Wind: 17mph
Humidity: 55%   Direction: 180°S
Pressure: 30"   Gusts: NA
Location:  37.9°S, 144.12°E
Report Text: YMAV 260800Z AUTO 18015KT 9999 // NCD 17/08 Q1016
Loading
Personal Weather Stations






























Interactive Weather Map New forecast layout! Learn more

10-Day Weather Forecast

Advertisements
Track Severe Weather on mobile